Time;durP1;ratioP1;P1;durP2;ratioP2;P2;SDS_P1;SDS_P2;PMS_P1;PMS_P2;Temp;Humidity;BMP_temperature;BMP_pressure;BME280_temperature;BME280_humidity;BME280_pressure;Samples;Min_cycle;Max_cycle;Signal;HPM_P1;HPM_P2
2020/12/03 00:01:54;;;;;;;44.97;27.10;;;-0.20;99.90;;;;;;5090707;28;20592;-77
2020/12/03 00:04:21;;;;;;;44.17;26.77;;;-0.20;99.90;;;;;;5090991;28;20220;-76
2020/12/03 00:06:51;;;;;;;45.77;26.53;;;-0.20;99.90;;;;;;5090386;28;20205;-75
2020/12/03 00:09:19;;;;;;;47.33;26.23;;;-0.10;99.90;;;;;;5090657;28;20296;-75
2020/12/03 00:11:49;;;;;;;46.13;27.30;;;-0.20;99.90;;;;;;5090408;28;20228;-76
2020/12/03 00:14:17;;;;;;;47.77;27.27;;;-0.30;99.90;;;;;;5089925;28;20667;-76
2020/12/03 00:16:44;;;;;;;49.07;27.80;;;-0.20;99.90;;;;;;5089998;28;20205;-76
2020/12/03 00:19:12;;;;;;;49.37;27.57;;;-0.30;99.90;;;;;;5089791;28;20738;-76
2020/12/03 00:21:41;;;;;;;46.83;26.80;;;-0.30;99.90;;;;;;5089586;28;20877;-76
2020/12/03 00:24:10;;;;;;;53.60;27.77;;;-0.30;99.90;;;;;;5089886;28;20387;-76
2020/12/03 00:26:37;;;;;;;50.27;27.40;;;-0.30;99.90;;;;;;5090245;28;20238;-76
2020/12/03 00:29:04;;;;;;;47.67;26.93;;;-0.30;99.90;;;;;;5090077;28;20747;-76
2020/12/03 00:31:31;;;;;;;46.40;28.17;;;-0.30;99.90;;;;;;5089938;28;20202;-76
2020/12/03 00:33:58;;;;;;;46.77;26.93;;;-0.30;99.90;;;;;;5090133;28;20284;-76
2020/12/03 00:36:25;;;;;;;50.57;27.80;;;-0.40;99.90;;;;;;5090257;28;20222;-76
2020/12/03 00:38:51;;;;;;;47.20;26.87;;;-0.40;99.90;;;;;;5089882;28;20204;-76
2020/12/03 00:41:19;;;;;;;45.77;26.37;;;-0.40;99.90;;;;;;5090099;28;20251;-76
2020/12/03 00:43:46;;;;;;;46.83;28.23;;;-0.40;99.90;;;;;;5089966;28;20324;-76
2020/12/03 00:46:13;;;;;;;43.10;26.33;;;-0.40;99.90;;;;;;5090035;28;20220;-76
2020/12/03 00:48:40;;;;;;;44.83;26.63;;;-0.40;99.90;;;;;;5089778;28;20211;-76
2020/12/03 00:51:11;;;;;;;45.63;25.13;;;-0.40;99.90;;;;;;5089975;28;20252;-76
2020/12/03 00:53:38;;;;;;;46.67;26.07;;;-0.50;99.90;;;;;;5089269;28;20711;-75
2020/12/03 00:56:05;;;;;;;46.17;26.23;;;-0.50;99.90;;;;;;5090054;28;20211;-75
2020/12/03 00:58:31;;;;;;;46.80;26.43;;;-0.40;99.90;;;;;;5089629;28;20212;-75
2020/12/03 01:00:57;;;;;;;41.07;25.00;;;-0.40;99.90;;;;;;5089379;28;20754;-76
2020/12/03 01:03:24;;;;;;;44.43;25.50;;;-0.40;99.90;;;;;;5090027;28;20204;-76
2020/12/03 01:05:51;;;;;;;45.03;25.37;;;-0.40;99.90;;;;;;5089645;28;20673;-76
2020/12/03 01:08:17;;;;;;;43.20;26.77;;;-0.40;99.90;;;;;;5089274;28;20231;-76
2020/12/03 01:10:44;;;;;;;46.63;26.07;;;-0.40;99.90;;;;;;5089277;28;20224;-76
2020/12/03 01:13:10;;;;;;;44.10;25.47;;;-0.40;99.90;;;;;;5089263;28;20681;-76
2020/12/03 01:15:36;;;;;;;44.97;25.87;;;-0.40;99.90;;;;;;5089110;28;20205;-76
2020/12/03 01:18:03;;;;;;;42.83;26.10;;;-0.40;99.90;;;;;;5089457;28;20212;-76
2020/12/03 01:20:30;;;;;;;45.87;26.53;;;-0.40;99.90;;;;;;5089128;28;20224;-76
2020/12/03 01:22:57;;;;;;;43.23;25.50;;;-0.40;99.90;;;;;;5089070;28;20657;-75
2020/12/03 01:25:25;;;;;;;41.33;25.63;;;-0.40;99.90;;;;;;5089164;28;20209;-76
2020/12/03 01:27:52;;;;;;;42.10;24.27;;;-0.50;99.90;;;;;;5089070;28;20205;-75
2020/12/03 01:30:20;;;;;;;46.30;25.27;;;-0.50;99.90;;;;;;5089330;28;20233;-75
2020/12/03 01:32:47;;;;;;;47.90;26.17;;;-0.50;99.90;;;;;;5088807;28;20654;-76
2020/12/03 01:35:15;;;;;;;42.87;25.63;;;-0.50;99.90;;;;;;5088830;28;20299;-75
2020/12/03 01:37:41;;;;;;;45.93;25.50;;;-0.50;99.90;;;;;;5088923;28;20210;-75
2020/12/03 01:40:11;;;;;;;41.63;24.67;;;-0.40;99.90;;;;;;5088447;28;20233;-75
2020/12/03 01:42:39;;;;;;;42.53;25.00;;;-0.40;99.90;;;;;;5088842;28;20649;-75
2020/12/03 01:45:38;;;;;;;44.90;25.90;;;-0.50;99.90;;;;;;5088645;28;20212;-77
2020/12/03 01:48:05;;;;;;;43.93;24.67;;;-0.50;99.90;;;;;;5088572;28;20239;-75
2020/12/03 01:50:31;;;;;;;43.63;24.93;;;-0.50;99.90;;;;;;5088994;28;20291;-76
2020/12/03 01:52:59;;;;;;;41.83;25.70;;;-0.50;99.90;;;;;;5088554;28;20437;-79
2020/12/03 01:55:26;;;;;;;43.03;24.37;;;-0.50;99.90;;;;;;5089143;28;20304;-78
2020/12/03 01:57:57;;;;;;;44.13;25.53;;;-0.50;99.90;;;;;;5088471;28;20208;-79
2020/12/03 02:00:23;;;;;;;45.33;25.13;;;-0.50;99.90;;;;;;5088795;28;20343;-79
2020/12/03 02:02:53;;;;;;;46.37;26.13;;;-0.50;99.90;;;;;;5088602;28;20220;-78
2020/12/03 02:05:23;;;;;;;45.37;24.87;;;-0.50;99.90;;;;;;5088330;28;20255;-79
2020/12/03 02:07:49;;;;;;;43.57;25.67;;;-0.50;99.90;;;;;;5088534;28;20229;-78
2020/12/03 02:10:18;;;;;;;49.10;27.17;;;-0.50;99.90;;;;;;5088580;28;20217;-78
2020/12/03 02:12:45;;;;;;;47.37;25.97;;;-0.60;99.90;;;;;;5088631;28;20212;-79
2020/12/03 02:15:11;;;;;;;44.17;25.23;;;-0.60;99.90;;;;;;5088412;28;20218;-77
2020/12/03 02:17:38;;;;;;;45.43;26.10;;;-0.60;99.90;;;;;;5088713;28;20308;-76
2020/12/03 02:20:08;;;;;;;46.23;26.00;;;-0.70;99.90;;;;;;5088243;28;20319;-76
2020/12/03 02:22:34;;;;;;;43.97;25.33;;;-0.60;99.90;;;;;;5088371;28;20216;-76
2020/12/03 02:25:01;;;;;;;42.73;25.37;;;-0.60;99.90;;;;;;5088461;28;20204;-76
2020/12/03 02:27:27;;;;;;;50.33;27.53;;;-0.60;99.90;;;;;;5088557;28;20579;-77
2020/12/03 02:29:54;;;;;;;43.13;25.13;;;-0.60;99.90;;;;;;5088266;28;20210;-76
2020/12/03 02:32:21;;;;;;;45.87;26.27;;;-0.70;99.90;;;;;;5088469;28;20204;-76
2020/12/03 02:34:48;;;;;;;46.17;26.17;;;-0.70;99.90;;;;;;5088257;28;20204;-77
2020/12/03 02:37:15;;;;;;;46.30;27.07;;;-0.70;99.90;;;;;;5088066;28;20666;-76
2020/12/03 02:39:42;;;;;;;44.53;25.83;;;-0.70;99.90;;;;;;5088266;28;20211;-76
2020/12/03 02:42:11;;;;;;;46.87;26.20;;;-0.70;99.90;;;;;;5088186;28;20244;-76
2020/12/03 02:44:40;;;;;;;46.73;26.57;;;-0.70;99.90;;;;;;5091543;28;20296;-76
2020/12/03 02:47:07;;;;;;;48.53;26.10;;;-0.70;99.90;;;;;;5092237;28;20240;-76
2020/12/03 02:49:33;;;;;;;47.13;26.83;;;-0.70;99.90;;;;;;5092367;28;20223;-76
2020/12/03 02:51:59;;;;;;;46.80;26.93;;;-0.70;99.90;;;;;;5091975;28;20360;-76
2020/12/03 02:54:27;;;;;;;44.60;25.70;;;-0.70;99.90;;;;;;5092089;28;20193;-76
2020/12/03 02:56:53;;;;;;;41.67;24.87;;;-0.70;99.90;;;;;;5092053;28;20209;-76
2020/12/03 02:59:19;;;;;;;48.67;26.90;;;-0.70;99.90;;;;;;5092173;28;20576;-76
2020/12/03 03:01:46;;;;;;;43.70;26.17;;;-0.70;99.90;;;;;;5091941;28;20713;-76
2020/12/03 03:04:12;;;;;;;47.80;26.87;;;-0.70;99.90;;;;;;5092093;28;20209;-76
2020/12/03 03:06:38;;;;;;;47.97;27.50;;;-0.70;99.90;;;;;;5091434;28;20258;-76
2020/12/03 03:09:07;;;;;;;43.30;25.97;;;-0.60;99.90;;;;;;5091706;28;20211;-77
2020/12/03 03:11:35;;;;;;;47.07;26.93;;;-0.60;99.90;;;;;;5091699;28;20212;-77
2020/12/03 03:14:02;;;;;;;44.23;27.67;;;-0.60;99.90;;;;;;5091946;28;20301;-77
2020/12/03 03:16:29;;;;;;;47.40;27.60;;;-0.60;99.90;;;;;;5091601;28;20292;-77
2020/12/03 03:18:55;;;;;;;50.00;26.80;;;-0.60;99.90;;;;;;5091417;28;20645;-77
2020/12/03 03:21:22;;;;;;;49.20;28.03;;;-0.60;99.90;;;;;;5091578;28;20230;-78
2020/12/03 03:23:48;;;;;;;47.47;26.80;;;-0.60;99.90;;;;;;5091776;28;20216;-78
2020/12/03 03:26:15;;;;;;;46.90;26.80;;;-0.60;99.90;;;;;;5091544;28;20268;-78
2020/12/03 03:28:43;;;;;;;47.93;27.50;;;-0.60;99.90;;;;;;5091654;28;20215;-77
2020/12/03 03:31:09;;;;;;;46.73;26.67;;;-0.60;99.90;;;;;;5091713;28;21025;-77
2020/12/03 03:33:35;;;;;;;48.23;28.07;;;-0.60;99.90;;;;;;5091153;28;20741;-77
2020/12/03 03:36:02;;;;;;;45.33;26.13;;;-0.60;99.90;;;;;;5091405;28;20212;-77
2020/12/03 03:38:28;;;;;;;48.27;27.70;;;-0.60;99.90;;;;;;5091081;28;20214;-77
2020/12/03 03:40:55;;;;;;;47.67;28.00;;;-0.60;99.90;;;;;;5091178;28;20224;-78
2020/12/03 03:43:21;;;;;;;48.67;27.60;;;-0.50;99.90;;;;;;5091512;28;20215;-78
2020/12/03 03:45:48;;;;;;;46.97;27.70;;;-0.70;99.90;;;;;;5091081;28;20291;-78
2020/12/03 03:48:15;;;;;;;47.73;27.53;;;-0.60;99.90;;;;;;5091648;28;20219;-77
2020/12/03 03:50:41;;;;;;;46.50;27.23;;;-0.60;99.90;;;;;;5090820;28;20973;-78
2020/12/03 03:53:07;;;;;;;49.33;28.43;;;-0.60;99.90;;;;;;5090635;28;20702;-77
2020/12/03 03:55:34;;;;;;;49.63;28.77;;;-0.60;99.90;;;;;;5089685;28;20659;-77
2020/12/03 03:58:00;;;;;;;48.43;27.73;;;-0.60;99.90;;;;;;5090643;28;20218;-76
2020/12/03 04:00:27;;;;;;;46.33;27.33;;;-0.60;99.90;;;;;;5091029;28;20230;-76
2020/12/03 04:02:54;;;;;;;53.53;28.77;;;-0.60;99.90;;;;;;5090901;28;20203;-76
2020/12/03 04:05:20;;;;;;;52.50;29.53;;;-0.60;99.90;;;;;;5092003;28;20260;-76
2020/12/03 04:07:46;;;;;;;46.30;27.83;;;-0.60;99.90;;;;;;5110184;28;20219;-79
2020/12/03 04:10:13;;;;;;;50.10;28.03;;;-0.50;99.90;;;;;;5110755;28;20209;-77
2020/12/03 04:12:40;;;;;;;52.10;29.67;;;-0.60;99.90;;;;;;5110755;28;20200;-76
2020/12/03 04:15:07;;;;;;;50.23;28.07;;;-0.60;99.90;;;;;;5110361;28;20204;-76
2020/12/03 04:17:36;;;;;;;52.77;30.23;;;-0.60;99.90;;;;;;5109650;28;20672;-76
2020/12/03 04:20:05;;;;;;;52.37;29.43;;;-0.60;99.90;;;;;;5090225;28;20204;-76
2020/12/03 04:22:31;;;;;;;50.93;28.93;;;-0.50;99.90;;;;;;5108502;28;20561;-76
2020/12/03 04:24:58;;;;;;;46.50;27.37;;;-0.50;99.90;;;;;;5109183;28;20214;-76
2020/12/03 04:27:25;;;;;;;50.27;29.30;;;-0.50;99.90;;;;;;5109067;28;20300;-77
2020/12/03 04:29:51;;;;;;;50.93;29.10;;;-0.50;99.90;;;;;;5108292;28;20209;-76
2020/12/03 04:32:18;;;;;;;47.07;28.10;;;-0.50;99.90;;;;;;5108521;28;20217;-76
2020/12/03 04:34:44;;;;;;;53.47;29.93;;;-0.50;99.90;;;;;;5105719;28;20208;-78
2020/12/03 04:37:11;;;;;;;54.50;31.83;;;-0.50;99.90;;;;;;5097973;28;20205;-78
2020/12/03 04:39:38;;;;;;;60.67;35.97;;;-0.50;99.90;;;;;;5096437;28;20204;-75
2020/12/03 04:42:08;;;;;;;58.97;30.50;;;-0.40;99.90;;;;;;5095802;27;20762;-75
2020/12/03 04:44:39;;;;;;;56.27;29.63;;;-0.40;99.90;;;;;;5097754;28;20197;-75
2020/12/03 04:47:26;;;;;;;51.57;29.97;;;-0.40;99.90;;;;;;5089192;28;20215;-75
2020/12/03 04:50:02;;;;;;;53.80;29.80;;;-0.40;99.90;;;;;;5092951;28;20211;-75
2020/12/03 04:52:49;;;;;;;50.97;29.10;;;-0.40;99.90;;;;;;5106302;28;20244;-76
2020/12/03 04:55:20;;;;;;;60.80;31.37;;;-0.40;99.90;;;;;;5106283;28;20567;-75
2020/12/03 04:57:56;;;;;;;53.33;29.70;;;-0.40;99.90;;;;;;5106706;28;20303;-76
2020/12/03 05:00:36;;;;;;;54.37;29.67;;;-0.40;99.90;;;;;;5102532;28;20261;-76
2020/12/03 05:03:27;;;;;;;53.80;30.77;;;-0.40;99.90;;;;;;5095504;28;20193;-76
2020/12/03 05:06:03;;;;;;;51.80;29.57;;;-0.40;99.90;;;;;;5102893;28;20233;-76
2020/12/03 05:08:38;;;;;;;53.80;29.43;;;-0.40;99.90;;;;;;5097235;28;20288;-76
2020/12/03 05:11:13;;;;;;;50.70;29.67;;;-0.40;99.90;;;;;;5087993;28;20224;-77
2020/12/03 05:13:46;;;;;;;57.57;31.27;;;-0.40;99.90;;;;;;5088359;28;20197;-77
2020/12/03 05:16:16;;;;;;;51.33;29.90;;;-0.40;99.90;;;;;;5088478;28;20561;-76
2020/12/03 05:18:52;;;;;;;54.57;30.80;;;-0.40;99.90;;;;;;5098129;28;20289;-77
2020/12/03 05:21:20;;;;;;;53.53;30.20;;;-0.40;99.90;;;;;;5094039;28;20218;-77
2020/12/03 05:23:48;;;;;;;54.27;30.70;;;-0.40;99.90;;;;;;5094375;28;20212;-76
2020/12/03 05:26:17;;;;;;;53.17;29.60;;;-0.40;99.90;;;;;;5094997;28;20212;-77
2020/12/03 05:28:51;;;;;;;55.90;30.87;;;-0.40;99.90;;;;;;5100493;28;20196;-76
2020/12/03 05:31:27;;;;;;;58.20;31.80;;;-0.40;99.90;;;;;;5098500;28;20271;-77
2020/12/03 05:34:01;;;;;;;55.33;29.90;;;-0.30;99.90;;;;;;5087161;28;20577;-76
2020/12/03 05:36:31;;;;;;;54.77;29.53;;;-0.30;99.90;;;;;;5087736;28;20193;-76
2020/12/03 05:39:00;;;;;;;55.87;30.70;;;-0.30;99.90;;;;;;5093240;28;20204;-77
2020/12/03 05:41:29;;;;;;;56.07;30.77;;;-0.30;99.90;;;;;;5101771;28;20315;-76
2020/12/03 05:43:55;;;;;;;57.20;32.23;;;-0.30;99.90;;;;;;5097747;28;20286;-76
2020/12/03 05:46:23;;;;;;;61.37;32.10;;;-0.30;99.90;;;;;;5093972;28;20666;-76
2020/12/03 05:48:57;;;;;;;56.23;30.57;;;-0.30;99.90;;;;;;5096168;28;20684;-76
2020/12/03 05:51:27;;;;;;;55.20;30.37;;;-0.30;99.90;;;;;;5096178;28;20296;-77
2020/12/03 05:53:57;;;;;;;54.53;30.33;;;-0.30;99.90;;;;;;5097883;28;20235;-76
2020/12/03 05:56:25;;;;;;;52.93;29.67;;;-0.30;99.90;;;;;;5097792;28;20203;-76
2020/12/03 05:58:52;;;;;;;56.17;30.23;;;-0.30;99.90;;;;;;5090648;28;20204;-77
2020/12/03 06:01:21;;;;;;;58.77;30.77;;;-0.30;99.90;;;;;;5093833;28;20228;-76
2020/12/03 06:04:18;;;;;;;53.70;30.57;;;-0.30;99.90;;;;;;5094824;28;20678;-76
2020/12/03 06:07:17;;;;;;;52.53;29.67;;;-0.30;99.90;;;;;;5096282;28;20217;-76
2020/12/03 06:10:03;;;;;;;55.83;30.03;;;-0.30;99.90;;;;;;5087398;28;20201;-76
2020/12/03 06:12:56;;;;;;;58.13;30.43;;;-0.30;99.90;;;;;;5085780;28;20207;-76
2020/12/03 06:15:36;;;;;;;50.13;29.07;;;-0.30;99.90;;;;;;5086105;28;20198;-76
2020/12/03 06:18:21;;;;;;;52.30;28.93;;;-0.30;99.90;;;;;;5085855;28;20730;-75
2020/12/03 06:20:59;;;;;;;51.60;29.67;;;-0.30;99.90;;;;;;5084195;28;20220;-76
2020/12/03 06:23:47;;;;;;;54.97;30.13;;;-0.30;99.90;;;;;;5086078;28;20202;-76
2020/12/03 06:26:26;;;;;;;50.77;29.90;;;-0.20;99.90;;;;;;5093714;28;20739;-76
2020/12/03 06:29:11;;;;;;;54.17;29.33;;;-0.30;99.90;;;;;;5096426;28;20235;-76
2020/12/03 06:31:50;;;;;;;46.77;28.00;;;-0.30;99.90;;;;;;5096736;28;20210;-76
2020/12/03 06:34:22;;;;;;;54.80;30.27;;;-0.30;99.90;;;;;;5096640;28;20204;-75
2020/12/03 06:36:55;;;;;;;53.40;29.27;;;-0.30;99.90;;;;;;5096389;28;20188;-76
2020/12/03 06:39:36;;;;;;;56.90;29.23;;;-0.30;99.90;;;;;;5093310;28;20192;-76
2020/12/03 06:42:09;;;;;;;48.90;26.87;;;-0.30;99.90;;;;;;5097579;28;20585;-76
2020/12/03 06:44:40;;;;;;;52.73;28.43;;;-0.20;99.90;;;;;;5098072;28;21174;-76
2020/12/03 06:47:50;;;;;;;51.37;28.60;;;-0.30;99.90;;;;;;5098108;28;20227;-77
2020/12/03 06:50:59;;;;;;;47.27;27.83;;;-0.30;99.90;;;;;;5091008;28;20284;-78
2020/12/03 06:53:53;;;;;;;49.17;28.97;;;-0.20;99.90;;;;;;5087353;28;20274;-75
2020/12/03 06:56:56;;;;;;;53.97;35.72;;;-0.20;99.90;;;;;;5087271;28;20435;-75
2020/12/03 07:00:09;;;;;;;52.90;29.57;;;-0.20;99.90;;;;;;5087811;28;20546;-75
2020/12/03 07:03:14;;;;;;;52.17;28.43;;;-0.20;99.90;;;;;;5093656;28;20681;-75
2020/12/03 07:06:10;;;;;;;49.00;27.70;;;-0.20;99.90;;;;;;5104337;28;20217;-75
2020/12/03 07:09:13;;;;;;;51.03;28.00;;;-0.20;99.90;;;;;;5107807;28;20196;-76
2020/12/03 07:11:56;;;;;;;47.20;27.70;;;-0.20;99.90;;;;;;5084493;28;20208;-75
2020/12/03 07:15:01;;;;;;;49.03;26.70;;;-0.20;99.90;;;;;;5104315;28;20672;-75
2020/12/03 07:18:05;;;;;;;49.30;28.07;;;-0.20;99.90;;;;;;5060406;28;20535;-76
2020/12/03 07:21:11;;;;;;;50.47;27.50;;;-0.20;99.90;;;;;;5086450;28;20570;-76
2020/12/03 07:23:47;;;;;;;48.80;27.37;;;-0.20;99.90;;;;;;5091890;28;20188;-75
2020/12/03 07:26:47;;;;;;;51.70;28.30;;;-0.20;99.90;;;;;;5095537;28;20666;-75
2020/12/03 07:29:19;;;;;;;46.53;26.73;;;-0.20;99.90;;;;;;5098635;28;20238;-76
2020/12/03 07:31:48;;;;;;;51.07;26.70;;;-0.20;99.90;;;;;;5100555;28;20207;-75
2020/12/03 07:34:28;;;;;;;49.57;27.77;;;-0.20;99.90;;;;;;5102121;28;20305;-76
2020/12/03 07:37:03;;;;;;;50.07;27.90;;;-0.20;99.90;;;;;;5103101;28;20197;-75
2020/12/03 07:39:35;;;;;;;46.00;27.13;;;-0.20;99.90;;;;;;5104307;28;20274;-75
2020/12/03 07:42:04;;;;;;;46.40;26.73;;;-0.20;99.90;;;;;;5111332;27;20223;-75
2020/12/03 07:44:37;;;;;;;49.37;27.40;;;-0.20;99.90;;;;;;5111178;28;20631;-75
2020/12/03 07:47:36;;;;;;;52.30;28.23;;;-0.20;99.90;;;;;;5105182;28;20207;-76
2020/12/03 07:50:05;;;;;;;47.57;26.40;;;-0.10;99.90;;;;;;5096947;28;20215;-76
2020/12/03 07:52:34;;;;;;;52.17;28.47;;;-0.10;99.90;;;;;;5098800;28;20245;-76
2020/12/03 07:55:28;;;;;;;48.30;25.57;;;-0.20;99.90;;;;;;5099807;28;20200;-76
2020/12/03 07:57:56;;;;;;;47.93;26.53;;;-0.20;99.90;;;;;;5089071;28;20652;-75
2020/12/03 08:00:49;;;;;;;47.00;26.47;;;-0.20;99.90;;;;;;5088985;28;20667;-76
2020/12/03 08:03:47;;;;;;;52.43;27.57;;;-0.20;99.90;;;;;;5094149;28;20193;-76
2020/12/03 08:06:16;;;;;;;45.67;26.47;;;-0.20;99.90;;;;;;5097879;28;20320;-75
2020/12/03 08:08:43;;;;;;;47.77;25.47;;;-0.10;99.90;;;;;;5101532;28;20660;-74
2020/12/03 08:11:37;;;;;;;43.07;25.60;;;-0.10;99.90;;;;;;5098272;28;20208;-75
2020/12/03 08:14:15;;;;;;;45.57;26.60;;;-0.10;99.90;;;;;;5099696;28;20210;-75
2020/12/03 08:16:43;;;;;;;43.53;25.17;;;-0.10;99.90;;;;;;5095799;28;20189;-75
2020/12/03 08:19:20;;;;;;;39.70;23.27;;;-0.10;99.90;;;;;;5101267;28;20211;-75
2020/12/03 08:21:48;;;;;;;48.50;26.10;;;-0.10;99.90;;;;;;5100418;28;20220;-75
2020/12/03 08:24:18;;;;;;;43.37;25.60;;;0.00;99.90;;;;;;5100746;28;20289;-74
2020/12/03 08:26:45;;;;;;;44.40;25.37;;;0.00;99.90;;;;;;5098010;28;20220;-74
2020/12/03 08:29:24;;;;;;;43.20;25.77;;;0.00;99.90;;;;;;5099830;28;20200;-75
2020/12/03 08:31:50;;;;;;;43.17;25.60;;;0.00;99.90;;;;;;5099851;28;20185;-75
2020/12/03 08:34:18;;;;;;;46.77;25.67;;;0.00;99.90;;;;;;5098609;28;20299;-75
2020/12/03 08:36:45;;;;;;;43.50;25.93;;;0.00;99.90;;;;;;5097263;27;20246;-75
2020/12/03 08:39:12;;;;;;;47.17;26.33;;;0.00;99.90;;;;;;5096371;28;20196;-75
2020/12/03 08:41:39;;;;;;;44.13;25.73;;;0.10;99.90;;;;;;5098917;28;20224;-75
2020/12/03 08:44:10;;;;;;;46.57;25.53;;;0.10;99.90;;;;;;5102993;28;20980;-75
2020/12/03 08:46:36;;;;;;;41.73;26.20;;;0.10;99.90;;;;;;5097153;28;20813;-75
2020/12/03 08:49:05;;;;;;;45.97;27.03;;;0.20;99.90;;;;;;5093959;28;20293;-79
2020/12/03 08:51:36;;;;;;;72.80;47.10;;;0.20;99.90;;;;;;5099445;28;20204;-81
2020/12/03 08:54:02;;;;;;;42.83;26.63;;;0.20;99.90;;;;;;5099606;28;20729;-75
2020/12/03 08:56:38;;;;;;;40.17;24.10;;;0.30;99.90;;;;;;5108968;28;20295;-75
2020/12/03 08:59:10;;;;;;;46.00;26.27;;;0.30;99.90;;;;;;5110034;28;20200;-75
2020/12/03 09:01:40;;;;;;;44.43;25.17;;;0.30;99.90;;;;;;5109819;28;20324;-75
2020/12/03 09:04:07;;;;;;;41.13;24.00;;;0.30;99.90;;;;;;5110000;28;20281;-75
2020/12/03 09:06:44;;;;;;;40.43;25.10;;;0.30;99.90;;;;;;5109865;28;20235;-75
2020/12/03 09:09:11;;;;;;;43.83;24.50;;;0.30;99.90;;;;;;5105934;28;20200;-75
2020/12/03 09:11:38;;;;;;;40.87;24.87;;;0.30;99.90;;;;;;5109467;28;20742;-75
2020/12/03 09:14:06;;;;;;;44.60;25.00;;;0.20;99.90;;;;;;5109105;28;20218;-75
2020/12/03 09:16:35;;;;;;;42.97;24.37;;;0.30;99.90;;;;;;5109788;28;20201;-75
2020/12/03 09:19:01;;;;;;;45.23;24.93;;;0.30;99.90;;;;;;5109314;28;20220;-76
2020/12/03 09:21:30;;;;;;;44.07;24.60;;;0.30;99.90;;;;;;5104804;28;20320;-76
2020/12/03 09:23:59;;;;;;;42.23;25.10;;;0.30;99.90;;;;;;5102330;28;20208;-76
2020/12/03 09:26:31;;;;;;;40.03;24.43;;;0.30;99.90;;;;;;5096793;28;20228;-76
2020/12/03 09:28:59;;;;;;;39.80;23.63;;;0.40;99.90;;;;;;5099132;28;20202;-75
2020/12/03 09:31:26;;;;;;;37.20;23.07;;;0.40;99.90;;;;;;5109015;28;20209;-76
2020/12/03 09:33:55;;;;;;;40.17;24.40;;;0.30;99.90;;;;;;5109446;28;20210;-76
2020/12/03 09:36:21;;;;;;;41.40;24.03;;;0.30;99.90;;;;;;5106073;28;20198;-75
2020/12/03 09:38:48;;;;;;;37.23;23.27;;;0.30;99.90;;;;;;5096083;28;20197;-76
2020/12/03 09:41:20;;;;;;;39.67;23.53;;;0.30;99.90;;;;;;5108793;28;20228;-76
2020/12/03 09:43:47;;;;;;;36.87;22.50;;;0.30;99.90;;;;;;5109545;28;20207;-75
2020/12/03 09:46:19;;;;;;;38.77;23.67;;;0.40;99.90;;;;;;5109134;28;20205;-75
2020/12/03 09:48:47;;;;;;;38.23;22.30;;;0.40;99.90;;;;;;5109251;28;20197;-76
2020/12/03 09:51:13;;;;;;;41.27;24.07;;;0.40;99.90;;;;;;5108905;28;21029;-76
2020/12/03 09:53:40;;;;;;;37.20;23.33;;;0.40;99.90;;;;;;5107690;28;20652;-76
2020/12/03 09:56:06;;;;;;;36.77;23.10;;;0.40;99.90;;;;;;5108118;28;20255;-76
2020/12/03 09:58:34;;;;;;;40.57;23.40;;;0.40;99.90;;;;;;5108746;28;20717;-76
2020/12/03 10:01:05;;;;;;;36.73;21.97;;;0.50;99.90;;;;;;5108782;28;20203;-76
2020/12/03 10:03:58;;;;;;;36.17;22.07;;;0.40;99.90;;;;;;5108905;28;20197;-76
2020/12/03 10:06:29;;;;;;;37.40;22.27;;;0.40;99.90;;;;;;5077205;28;20315;-76
2020/12/03 10:09:10;;;;;;;35.63;21.90;;;0.50;99.90;;;;;;5108413;28;20278;-76
2020/12/03 10:12:13;;;;;;;33.77;21.17;;;0.50;99.90;;;;;;5108476;28;20680;-76
2020/12/03 10:15:32;;;;;;;34.50;20.73;;;0.50;99.90;;;;;;5104376;28;20580;-76
2020/12/03 10:18:09;;;;;;;32.47;20.93;;;0.60;99.90;;;;;;5090425;28;20290;-76
2020/12/03 10:20:37;;;;;;;32.67;21.33;;;0.60;99.90;;;;;;5088304;28;20555;-78
2020/12/03 10:23:23;;;;;;;39.13;22.93;;;0.60;99.90;;;;;;5097403;28;20252;-80
2020/12/03 10:25:59;;;;;;;35.13;24.50;;;0.60;99.90;;;;;;5087656;28;20270;-80
2020/12/03 10:28:37;;;;;;;33.03;20.23;;;0.70;99.90;;;;;;5087064;28;20201;-76
2020/12/03 10:31:05;;;;;;;31.77;19.33;;;0.70;99.90;;;;;;5086536;28;20196;-77
2020/12/03 10:33:35;;;;;;;30.83;19.07;;;0.70;99.90;;;;;;5095522;28;20201;-76
2020/12/03 10:36:08;;;;;;;33.60;20.17;;;0.70;99.90;;;;;;5096126;28;20198;-76
2020/12/03 10:38:42;;;;;;;34.07;21.17;;;0.70;99.90;;;;;;5095826;28;20308;-77
2020/12/03 10:41:09;;;;;;;27.57;19.07;;;0.70;99.90;;;;;;5096458;28;20214;-76
2020/12/03 10:43:37;;;;;;;31.87;19.13;;;0.70;99.90;;;;;;5097827;28;20201;-76
2020/12/03 10:46:11;;;;;;;32.47;20.37;;;0.70;99.90;;;;;;5096368;28;20285;-77
2020/12/03 10:48:40;;;;;;;32.03;19.90;;;0.60;99.90;;;;;;5098857;28;20198;-76
2020/12/03 10:51:07;;;;;;;31.93;18.87;;;0.60;99.90;;;;;;5096866;28;20288;-77
2020/12/03 10:53:35;;;;;;;30.33;18.80;;;0.70;99.90;;;;;;5097598;28;20280;-76
2020/12/03 10:56:03;;;;;;;30.07;19.37;;;0.60;99.90;;;;;;5097336;28;20743;-77
2020/12/03 10:58:34;;;;;;;30.50;18.90;;;0.70;99.90;;;;;;5093559;28;20202;-76
2020/12/03 11:01:07;;;;;;;30.43;19.43;;;0.70;99.90;;;;;;5097027;28;20289;-76
2020/12/03 11:03:36;;;;;;;31.80;19.53;;;0.70;99.90;;;;;;5100589;28;20203;-77
2020/12/03 11:06:04;;;;;;;30.40;18.97;;;0.70;99.90;;;;;;5102936;28;20228;-77
2020/12/03 11:08:38;;;;;;;31.30;20.03;;;0.70;99.90;;;;;;5099062;28;20201;-77
2020/12/03 11:11:07;;;;;;;31.07;19.20;;;0.70;99.90;;;;;;5102748;27;20202;-76
2020/12/03 11:13:34;;;;;;;33.03;19.03;;;0.70;99.90;;;;;;5096189;28;20281;-76
2020/12/03 11:16:03;;;;;;;31.53;19.40;;;0.80;99.90;;;;;;5098196;28;20229;-76
2020/12/03 11:18:40;;;;;;;28.53;19.00;;;0.80;99.90;;;;;;5098878;28;20212;-77
2020/12/03 11:21:14;;;;;;;31.90;19.33;;;0.80;99.90;;;;;;5102350;28;20250;-76
2020/12/03 11:23:57;;;;;;;31.17;19.50;;;0.80;99.90;;;;;;5107696;27;20196;-77
2020/12/03 11:26:28;;;;;;;31.90;20.30;;;0.80;99.90;;;;;;5107387;28;20214;-76
2020/12/03 11:28:55;;;;;;;37.50;21.73;;;0.80;99.90;;;;;;5090544;28;20198;-77
2020/12/03 11:31:31;;;;;;;30.70;19.00;;;0.80;99.90;;;;;;5098412;28;20947;-76
2020/12/03 11:33:58;;;;;;;28.73;18.70;;;0.80;99.90;;;;;;5106018;28;20206;-77
2020/12/03 11:36:35;;;;;;;31.70;19.57;;;0.90;99.90;;;;;;5107481;27;20202;-76
2020/12/03 11:39:03;;;;;;;30.60;19.20;;;0.90;99.90;;;;;;5111206;28;20256;-78
2020/12/03 11:41:38;;;;;;;31.43;19.40;;;0.90;99.90;;;;;;5111041;28;20225;-77
2020/12/03 11:49:28;;;;;;;27.87;18.27;;;0.90;99.90;;;;;;5110862;28;20205;-76
2020/12/03 11:51:55;;;;;;;28.43;18.80;;;0.90;99.90;;;;;;5110587;28;20686;-77
2020/12/03 11:54:28;;;;;;;30.50;19.17;;;0.90;99.90;;;;;;5110476;28;20189;-76
2020/12/03 11:56:59;;;;;;;27.67;18.17;;;0.90;99.90;;;;;;5110559;28;20199;-76
2020/12/03 11:59:31;;;;;;;27.83;18.47;;;0.90;99.90;;;;;;5110304;28;20282;-76
2020/12/03 12:01:59;;;;;;;27.47;18.77;;;0.90;99.90;;;;;;5110097;28;20313;-76
2020/12/03 12:04:31;;;;;;;30.10;18.97;;;0.90;99.90;;;;;;5101246;28;20701;-76
2020/12/03 12:09:46;;;;;;;30.57;18.40;;;0.90;99.90;;;;;;5097952;28;20197;-77
2020/12/03 12:12:13;;;;;;;29.20;18.87;;;0.90;99.90;;;;;;5095785;28;20190;-76
2020/12/03 12:14:39;;;;;;;28.80;18.17;;;0.90;99.90;;;;;;5097809;28;20259;-76
2020/12/03 12:17:06;;;;;;;30.17;18.83;;;1.00;99.90;;;;;;5101231;28;20288;-77
2020/12/03 12:19:34;;;;;;;28.17;18.03;;;0.90;99.90;;;;;;5099008;28;20261;-76
2020/12/03 12:22:01;;;;;;;29.33;19.23;;;1.00;99.90;;;;;;5097641;28;20221;-76
2020/12/03 12:24:28;;;;;;;29.77;18.37;;;0.90;99.90;;;;;;5100924;28;20199;-76
2020/12/03 12:26:54;;;;;;;30.90;19.50;;;1.00;99.90;;;;;;5097632;28;20636;-77
2020/12/03 12:29:21;;;;;;;34.77;24.47;;;1.00;99.90;;;;;;5102666;28;20198;-79
2020/12/03 12:31:47;;;;;;;35.97;24.47;;;1.00;99.90;;;;;;5097861;28;20205;-79
2020/12/03 12:34:14;;;;;;;29.07;19.27;;;1.00;99.90;;;;;;5097541;28;20708;-80
2020/12/03 12:36:41;;;;;;;29.03;19.07;;;1.10;99.90;;;;;;5098469;28;20195;-83
2020/12/03 12:39:07;;;;;;;28.73;18.77;;;1.10;99.90;;;;;;5098929;28;20208;-82
2020/12/03 12:41:33;;;;;;;28.93;18.17;;;1.10;99.90;;;;;;5098654;28;20221;-83
2020/12/03 12:44:00;;;;;;;29.47;18.37;;;1.00;99.90;;;;;;5100164;28;20731;-82
2020/12/03 12:46:26;;;;;;;28.47;18.30;;;1.10;99.90;;;;;;5100128;28;20205;-82
2020/12/03 12:48:53;;;;;;;28.20;18.20;;;1.10;99.90;;;;;;5101096;28;20195;-83
2020/12/03 12:51:20;;;;;;;29.20;18.27;;;1.10;99.90;;;;;;5096995;28;20289;-82
2020/12/03 12:53:47;;;;;;;30.13;19.57;;;1.10;99.90;;;;;;5099911;28;20238;-83
2020/12/03 12:56:14;;;;;;;28.23;18.60;;;1.10;99.90;;;;;;5095358;28;20226;-81
2020/12/03 12:58:41;;;;;;;28.93;18.60;;;1.10;99.90;;;;;;5100074;28;20200;-81
2020/12/03 13:01:07;;;;;;;28.57;18.87;;;1.10;99.90;;;;;;5103726;28;20293;-82
2020/12/03 13:03:34;;;;;;;27.93;18.63;;;1.10;99.90;;;;;;5088901;28;20306;-82